sensor_id;sensor_type;location;lat;lon;timestamp;P1;durP1;ratioP1;P2;durP2;ratioP2
51792;SDS011;37850;53.178;6.376;2023-11-18T00:01:08;43.25;;;21.65;;
51792;SDS011;37850;53.178;6.376;2023-11-18T00:03:34;46.60;;;23.10;;
51792;SDS011;37850;53.178;6.376;2023-11-18T00:06:00;47.58;;;22.77;;
51792;SDS011;37850;53.178;6.376;2023-11-18T00:08:26;42.60;;;21.63;;
51792;SDS011;37850;53.178;6.376;2023-11-18T00:10:52;48.88;;;23.33;;
51792;SDS011;37850;53.178;6.376;2023-11-18T00:13:18;48.40;;;23.50;;
51792;SDS011;37850;53.178;6.376;2023-11-18T00:15:44;48.17;;;23.60;;
51792;SDS011;37850;53.178;6.376;2023-11-18T00:18:11;42.67;;;23.23;;
51792;SDS011;37850;53.178;6.376;2023-11-18T00:20:37;46.42;;;22.55;;
51792;SDS011;37850;53.178;6.376;2023-11-18T00:23:03;36.08;;;20.77;;
51792;SDS011;37850;53.178;6.376;2023-11-18T00:25:31;38.13;;;20.50;;
51792;SDS011;37850;53.178;6.376;2023-11-18T00:27:59;39.85;;;21.33;;
51792;SDS011;37850;53.178;6.376;2023-11-18T00:30:24;42.80;;;22.17;;
51792;SDS011;37850;53.178;6.376;2023-11-18T00:32:50;38.85;;;20.98;;
51792;SDS011;37850;53.178;6.376;2023-11-18T00:35:17;41.63;;;21.80;;
51792;SDS011;37850;53.178;6.376;2023-11-18T00:37:43;43.75;;;20.85;;
51792;SDS011;37850;53.178;6.376;2023-11-18T00:40:09;44.95;;;21.05;;
51792;SDS011;37850;53.178;6.376;2023-11-18T00:42:34;40.22;;;22.20;;
51792;SDS011;37850;53.178;6.376;2023-11-18T00:45:00;48.42;;;21.60;;
51792;SDS011;37850;53.178;6.376;2023-11-18T00:47:26;46.85;;;22.55;;
51792;SDS011;37850;53.178;6.376;2023-11-18T00:49:52;46.70;;;22.55;;
51792;SDS011;37850;53.178;6.376;2023-11-18T00:52:18;44.78;;;21.90;;
51792;SDS011;37850;53.178;6.376;2023-11-18T00:54:44;40.80;;;21.70;;
51792;SDS011;37850;53.178;6.376;2023-11-18T00:57:10;45.30;;;23.10;;
51792;SDS011;37850;53.178;6.376;2023-11-18T00:59:36;43.30;;;22.52;;
51792;SDS011;37850;53.178;6.376;2023-11-18T01:02:02;45.20;;;22.02;;
51792;SDS011;37850;53.178;6.376;2023-11-18T01:04:28;41.92;;;22.17;;
51792;SDS011;37850;53.178;6.376;2023-11-18T01:06:54;46.33;;;22.77;;
51792;SDS011;37850;53.178;6.376;2023-11-18T01:09:22;47.53;;;23.33;;
51792;SDS011;37850;53.178;6.376;2023-11-18T01:11:49;46.88;;;22.67;;
51792;SDS011;37850;53.178;6.376;2023-11-18T01:14:15;45.97;;;23.25;;
51792;SDS011;37850;53.178;6.376;2023-11-18T01:16:42;43.30;;;21.90;;
51792;SDS011;37850;53.178;6.376;2023-11-18T01:19:09;40.33;;;21.20;;
51792;SDS011;37850;53.178;6.376;2023-11-18T01:21:35;48.78;;;22.33;;
51792;SDS011;37850;53.178;6.376;2023-11-18T01:24:01;43.13;;;21.48;;
51792;SDS011;37850;53.178;6.376;2023-11-18T01:26:27;36.47;;;20.48;;
51792;SDS011;37850;53.178;6.376;2023-11-18T01:28:53;42.28;;;22.15;;
51792;SDS011;37850;53.178;6.376;2023-11-18T01:31:21;39.33;;;20.60;;
51792;SDS011;37850;53.178;6.376;2023-11-18T01:33:47;37.20;;;19.60;;
51792;SDS011;37850;53.178;6.376;2023-11-18T01:36:15;43.20;;;20.60;;
51792;SDS011;37850;53.178;6.376;2023-11-18T01:38:44;47.70;;;23.17;;
51792;SDS011;37850;53.178;6.376;2023-11-18T01:41:09;44.75;;;21.83;;
51792;SDS011;37850;53.178;6.376;2023-11-18T01:43:35;47.72;;;23.05;;
51792;SDS011;37850;53.178;6.376;2023-11-18T01:46:02;49.67;;;23.67;;
51792;SDS011;37850;53.178;6.376;2023-11-18T01:48:29;44.15;;;22.60;;
51792;SDS011;37850;53.178;6.376;2023-11-18T01:50:58;53.70;;;25.13;;
51792;SDS011;37850;53.178;6.376;2023-11-18T01:53:24;48.63;;;24.38;;
51792;SDS011;37850;53.178;6.376;2023-11-18T01:55:52;47.85;;;23.95;;
51792;SDS011;37850;53.178;6.376;2023-11-18T01:58:18;54.40;;;25.85;;
51792;SDS011;37850;53.178;6.376;2023-11-18T02:00:45;58.83;;;26.10;;
51792;SDS011;37850;53.178;6.376;2023-11-18T02:03:12;49.00;;;24.42;;
51792;SDS011;37850;53.178;6.376;2023-11-18T02:05:38;55.05;;;26.05;;
51792;SDS011;37850;53.178;6.376;2023-11-18T02:08:04;51.15;;;24.52;;
51792;SDS011;37850;53.178;6.376;2023-11-18T02:10:34;53.15;;;25.75;;
51792;SDS011;37850;53.178;6.376;2023-11-18T02:15:45;55.38;;;25.00;;
51792;SDS011;37850;53.178;6.376;2023-11-18T02:18:11;55.80;;;26.48;;
51792;SDS011;37850;53.178;6.376;2023-11-18T02:20:38;50.30;;;25.35;;
51792;SDS011;37850;53.178;6.376;2023-11-18T02:23:04;56.17;;;27.30;;
51792;SDS011;37850;53.178;6.376;2023-11-18T02:25:33;62.17;;;29.05;;
51792;SDS011;37850;53.178;6.376;2023-11-18T02:27:59;59.95;;;27.48;;
51792;SDS011;37850;53.178;6.376;2023-11-18T02:30:25;58.58;;;26.95;;
51792;SDS011;37850;53.178;6.376;2023-11-18T02:33:07;59.15;;;26.90;;
51792;SDS011;37850;53.178;6.376;2023-11-18T02:36:04;61.15;;;27.85;;
51792;SDS011;37850;53.178;6.376;2023-11-18T02:38:37;62.40;;;28.25;;
51792;SDS011;37850;53.178;6.376;2023-11-18T02:41:10;67.85;;;28.50;;
51792;SDS011;37850;53.178;6.376;2023-11-18T02:43:38;89.68;;;30.25;;
51792;SDS011;37850;53.178;6.376;2023-11-18T02:46:05;108.97;;;30.70;;
51792;SDS011;37850;53.178;6.376;2023-11-18T02:48:32;100.60;;;31.27;;
51792;SDS011;37850;53.178;6.376;2023-11-18T02:50:59;185.70;;;33.70;;
51792;SDS011;37850;53.178;6.376;2023-11-18T02:53:25;151.25;;;31.50;;
51792;SDS011;37850;53.178;6.376;2023-11-18T02:55:51;163.15;;;29.80;;
51792;SDS011;37850;53.178;6.376;2023-11-18T02:58:17;92.65;;;27.95;;
51792;SDS011;37850;53.178;6.376;2023-11-18T03:00:44;113.05;;;28.25;;
51792;SDS011;37850;53.178;6.376;2023-11-18T03:03:13;161.18;;;29.83;;
51792;SDS011;37850;53.178;6.376;2023-11-18T03:05:39;119.40;;;28.05;;
51792;SDS011;37850;53.178;6.376;2023-11-18T03:08:05;153.07;;;30.92;;
51792;SDS011;37850;53.178;6.376;2023-11-18T03:10:33;235.35;;;30.88;;
51792;SDS011;37850;53.178;6.376;2023-11-18T03:13:00;184.02;;;29.98;;
51792;SDS011;37850;53.178;6.376;2023-11-18T03:15:26;155.23;;;30.75;;
51792;SDS011;37850;53.178;6.376;2023-11-18T03:17:54;141.85;;;28.42;;
51792;SDS011;37850;53.178;6.376;2023-11-18T03:20:20;100.15;;;25.27;;
51792;SDS011;37850;53.178;6.376;2023-11-18T03:22:48;98.20;;;26.58;;
51792;SDS011;37850;53.178;6.376;2023-11-18T03:25:15;118.65;;;29.30;;
51792;SDS011;37850;53.178;6.376;2023-11-18T03:27:42;61.97;;;25.48;;
51792;SDS011;37850;53.178;6.376;2023-11-18T03:30:09;94.72;;;25.85;;
51792;SDS011;37850;53.178;6.376;2023-11-18T03:32:35;68.63;;;26.30;;
51792;SDS011;37850;53.178;6.376;2023-11-18T03:35:04;114.43;;;26.65;;
51792;SDS011;37850;53.178;6.376;2023-11-18T03:37:43;129.35;;;27.27;;
51792;SDS011;37850;53.178;6.376;2023-11-18T03:40:09;102.18;;;24.70;;
51792;SDS011;37850;53.178;6.376;2023-11-18T03:42:37;112.75;;;27.75;;
51792;SDS011;37850;53.178;6.376;2023-11-18T03:45:05;100.75;;;24.55;;
51792;SDS011;37850;53.178;6.376;2023-11-18T03:47:31;60.78;;;24.38;;
51792;SDS011;37850;53.178;6.376;2023-11-18T03:49:58;101.53;;;24.67;;
51792;SDS011;37850;53.178;6.376;2023-11-18T03:52:24;64.72;;;23.55;;
51792;SDS011;37850;53.178;6.376;2023-11-18T03:54:50;50.25;;;23.52;;
51792;SDS011;37850;53.178;6.376;2023-11-18T03:57:16;52.55;;;22.67;;
51792;SDS011;37850;53.178;6.376;2023-11-18T03:59:42;116.55;;;24.75;;
51792;SDS011;37850;53.178;6.376;2023-11-18T04:02:07;77.03;;;24.77;;
51792;SDS011;37850;53.178;6.376;2023-11-18T04:04:36;109.90;;;26.17;;
51792;SDS011;37850;53.178;6.376;2023-11-18T04:07:02;53.03;;;23.60;;
51792;SDS011;37850;53.178;6.376;2023-11-18T04:09:29;99.38;;;26.23;;
51792;SDS011;37850;53.178;6.376;2023-11-18T04:11:55;84.22;;;24.15;;
51792;SDS011;37850;53.178;6.376;2023-11-18T04:14:21;82.72;;;24.60;;
51792;SDS011;37850;53.178;6.376;2023-11-18T04:16:47;81.70;;;24.98;;
51792;SDS011;37850;53.178;6.376;2023-11-18T04:19:14;94.55;;;25.98;;
51792;SDS011;37850;53.178;6.376;2023-11-18T04:21:40;79.53;;;27.05;;
51792;SDS011;37850;53.178;6.376;2023-11-18T04:24:07;81.82;;;24.55;;
51792;SDS011;37850;53.178;6.376;2023-11-18T04:26:33;70.07;;;25.17;;
51792;SDS011;37850;53.178;6.376;2023-11-18T04:29:00;94.82;;;26.75;;
51792;SDS011;37850;53.178;6.376;2023-11-18T04:31:25;71.97;;;26.00;;
51792;SDS011;37850;53.178;6.376;2023-11-18T04:33:51;61.92;;;25.42;;
51792;SDS011;37850;53.178;6.376;2023-11-18T04:36:17;74.97;;;25.48;;
51792;SDS011;37850;53.178;6.376;2023-11-18T04:38:44;81.32;;;25.63;;
51792;SDS011;37850;53.178;6.376;2023-11-18T04:41:10;77.38;;;26.35;;
51792;SDS011;37850;53.178;6.376;2023-11-18T04:43:35;81.97;;;27.42;;
51792;SDS011;37850;53.178;6.376;2023-11-18T04:46:01;130.77;;;31.17;;
51792;SDS011;37850;53.178;6.376;2023-11-18T04:48:27;55.30;;;26.55;;
51792;SDS011;37850;53.178;6.376;2023-11-18T04:50:53;61.30;;;27.65;;
51792;SDS011;37850;53.178;6.376;2023-11-18T04:53:19;72.72;;;27.13;;
51792;SDS011;37850;53.178;6.376;2023-11-18T04:55:45;58.15;;;25.05;;
51792;SDS011;37850;53.178;6.376;2023-11-18T04:58:10;62.97;;;25.23;;
51792;SDS011;37850;53.178;6.376;2023-11-18T05:00:36;76.45;;;27.33;;
51792;SDS011;37850;53.178;6.376;2023-11-18T05:03:05;70.05;;;26.27;;
51792;SDS011;37850;53.178;6.376;2023-11-18T05:05:34;84.35;;;27.55;;
51792;SDS011;37850;53.178;6.376;2023-11-18T05:08:03;53.85;;;25.45;;
51792;SDS011;37850;53.178;6.376;2023-11-18T05:10:33;113.68;;;29.15;;
51792;SDS011;37850;53.178;6.376;2023-11-18T05:13:00;79.78;;;27.90;;
51792;SDS011;37850;53.178;6.376;2023-11-18T05:15:26;81.82;;;26.40;;
51792;SDS011;37850;53.178;6.376;2023-11-18T05:17:53;73.35;;;27.65;;
51792;SDS011;37850;53.178;6.376;2023-11-18T05:20:19;70.93;;;26.98;;
51792;SDS011;37850;53.178;6.376;2023-11-18T05:22:46;86.93;;;28.55;;
51792;SDS011;37850;53.178;6.376;2023-11-18T05:25:12;89.65;;;28.10;;
51792;SDS011;37850;53.178;6.376;2023-11-18T05:27:38;85.63;;;28.13;;
51792;SDS011;37850;53.178;6.376;2023-11-18T05:30:09;87.15;;;28.63;;
51792;SDS011;37850;53.178;6.376;2023-11-18T05:32:36;85.55;;;28.98;;
51792;SDS011;37850;53.178;6.376;2023-11-18T05:35:02;79.20;;;27.33;;
51792;SDS011;37850;53.178;6.376;2023-11-18T05:37:30;80.25;;;29.02;;
51792;SDS011;37850;53.178;6.376;2023-11-18T05:40:00;90.35;;;28.42;;
51792;SDS011;37850;53.178;6.376;2023-11-18T05:42:31;97.80;;;28.48;;
51792;SDS011;37850;53.178;6.376;2023-11-18T05:45:02;108.78;;;31.23;;
51792;SDS011;37850;53.178;6.376;2023-11-18T05:47:29;85.70;;;28.25;;
51792;SDS011;37850;53.178;6.376;2023-11-18T05:49:55;96.97;;;29.58;;
51792;SDS011;37850;53.178;6.376;2023-11-18T05:52:21;96.20;;;30.75;;
51792;SDS011;37850;53.178;6.376;2023-11-18T05:54:47;86.15;;;28.92;;
51792;SDS011;37850;53.178;6.376;2023-11-18T05:57:16;99.22;;;28.88;;
51792;SDS011;37850;53.178;6.376;2023-11-18T05:59:42;88.97;;;28.17;;
51792;SDS011;37850;53.178;6.376;2023-11-18T06:02:08;101.00;;;30.20;;
51792;SDS011;37850;53.178;6.376;2023-11-18T06:04:38;106.45;;;30.33;;
51792;SDS011;37850;53.178;6.376;2023-11-18T06:07:03;99.50;;;28.63;;
51792;SDS011;37850;53.178;6.376;2023-11-18T06:09:30;92.38;;;30.80;;
51792;SDS011;37850;53.178;6.376;2023-11-18T06:11:55;104.30;;;30.38;;
51792;SDS011;37850;53.178;6.376;2023-11-18T06:14:21;84.18;;;30.42;;
51792;SDS011;37850;53.178;6.376;2023-11-18T06:16:47;93.60;;;30.10;;
51792;SDS011;37850;53.178;6.376;2023-11-18T06:19:15;86.80;;;30.35;;
51792;SDS011;37850;53.178;6.376;2023-11-18T06:21:41;88.75;;;29.80;;
51792;SDS011;37850;53.178;6.376;2023-11-18T06:24:07;92.90;;;31.23;;
51792;SDS011;37850;53.178;6.376;2023-11-18T06:26:36;93.00;;;30.23;;
51792;SDS011;37850;53.178;6.376;2023-11-18T06:29:02;93.85;;;30.95;;
51792;SDS011;37850;53.178;6.376;2023-11-18T06:31:31;97.55;;;30.95;;
51792;SDS011;37850;53.178;6.376;2023-11-18T06:33:57;117.30;;;31.95;;
51792;SDS011;37850;53.178;6.376;2023-11-18T06:36:23;92.60;;;31.85;;
51792;SDS011;37850;53.178;6.376;2023-11-18T06:38:52;109.18;;;31.85;;
51792;SDS011;37850;53.178;6.376;2023-11-18T06:41:19;110.95;;;33.75;;
51792;SDS011;37850;53.178;6.376;2023-11-18T06:43:48;102.55;;;32.67;;
51792;SDS011;37850;53.178;6.376;2023-11-18T06:46:26;91.65;;;29.73;;
51792;SDS011;37850;53.178;6.376;2023-11-18T06:48:54;85.35;;;31.85;;
51792;SDS011;37850;53.178;6.376;2023-11-18T06:51:24;89.82;;;32.17;;
51792;SDS011;37850;53.178;6.376;2023-11-18T06:53:52;93.25;;;32.78;;
51792;SDS011;37850;53.178;6.376;2023-11-18T06:56:21;96.55;;;32.40;;
51792;SDS011;37850;53.178;6.376;2023-11-18T06:58:49;94.55;;;33.20;;
51792;SDS011;37850;53.178;6.376;2023-11-18T07:01:16;102.57;;;32.97;;
51792;SDS011;37850;53.178;6.376;2023-11-18T07:03:43;108.40;;;33.50;;
51792;SDS011;37850;53.178;6.376;2023-11-18T07:06:10;103.45;;;32.70;;
51792;SDS011;37850;53.178;6.376;2023-11-18T07:08:39;90.65;;;34.67;;
51792;SDS011;37850;53.178;6.376;2023-11-18T07:11:05;120.43;;;34.70;;
51792;SDS011;37850;53.178;6.376;2023-11-18T07:13:31;90.57;;;32.53;;
51792;SDS011;37850;53.178;6.376;2023-11-18T07:15:59;96.75;;;33.67;;
51792;SDS011;37850;53.178;6.376;2023-11-18T07:18:28;112.80;;;35.00;;
51792;SDS011;37850;53.178;6.376;2023-11-18T07:21:00;111.10;;;33.65;;
51792;SDS011;37850;53.178;6.376;2023-11-18T07:23:28;111.82;;;33.67;;
51792;SDS011;37850;53.178;6.376;2023-11-18T07:25:54;124.82;;;35.92;;
51792;SDS011;37850;53.178;6.376;2023-11-18T07:28:21;132.95;;;35.63;;
51792;SDS011;37850;53.178;6.376;2023-11-18T07:30:47;110.28;;;35.97;;
51792;SDS011;37850;53.178;6.376;2023-11-18T07:33:16;109.60;;;35.20;;
51792;SDS011;37850;53.178;6.376;2023-11-18T07:35:42;104.70;;;33.75;;
51792;SDS011;37850;53.178;6.376;2023-11-18T07:38:08;117.97;;;34.97;;
51792;SDS011;37850;53.178;6.376;2023-11-18T07:40:36;118.53;;;35.40;;
51792;SDS011;37850;53.178;6.376;2023-11-18T07:43:03;115.18;;;35.58;;
51792;SDS011;37850;53.178;6.376;2023-11-18T07:45:34;110.57;;;35.05;;
51792;SDS011;37850;53.178;6.376;2023-11-18T07:48:05;113.78;;;34.33;;
51792;SDS011;37850;53.178;6.376;2023-11-18T07:50:41;107.80;;;34.00;;
51792;SDS011;37850;53.178;6.376;2023-11-18T07:53:07;96.38;;;33.00;;
51792;SDS011;37850;53.178;6.376;2023-11-18T07:55:33;103.18;;;34.17;;
51792;SDS011;37850;53.178;6.376;2023-11-18T07:58:02;99.05;;;32.70;;
51792;SDS011;37850;53.178;6.376;2023-11-18T08:00:29;107.43;;;31.73;;
51792;SDS011;37850;53.178;6.376;2023-11-18T08:02:58;104.63;;;32.92;;
51792;SDS011;37850;53.178;6.376;2023-11-18T08:05:25;92.07;;;31.77;;
51792;SDS011;37850;53.178;6.376;2023-11-18T08:07:53;98.32;;;31.85;;
51792;SDS011;37850;53.178;6.376;2023-11-18T08:10:19;91.90;;;31.83;;
51792;SDS011;37850;53.178;6.376;2023-11-18T08:12:46;89.28;;;31.50;;
51792;SDS011;37850;53.178;6.376;2023-11-18T08:15:13;86.10;;;30.42;;
51792;SDS011;37850;53.178;6.376;2023-11-18T08:17:39;92.07;;;32.42;;
51792;SDS011;37850;53.178;6.376;2023-11-18T08:20:05;86.75;;;30.25;;
51792;SDS011;37850;53.178;6.376;2023-11-18T08:22:42;74.00;;;28.38;;
51792;SDS011;37850;53.178;6.376;2023-11-18T08:25:11;87.50;;;29.50;;
51792;SDS011;37850;53.178;6.376;2023-11-18T08:27:39;86.25;;;30.25;;
51792;SDS011;37850;53.178;6.376;2023-11-18T08:30:06;87.38;;;30.70;;
51792;SDS011;37850;53.178;6.376;2023-11-18T08:32:36;87.28;;;29.23;;
51792;SDS011;37850;53.178;6.376;2023-11-18T08:35:03;84.53;;;28.92;;
51792;SDS011;37850;53.178;6.376;2023-11-18T08:37:39;81.28;;;29.88;;
51792;SDS011;37850;53.178;6.376;2023-11-18T08:40:06;86.60;;;29.80;;
51792;SDS011;37850;53.178;6.376;2023-11-18T08:42:45;76.40;;;28.15;;
51792;SDS011;37850;53.178;6.376;2023-11-18T08:45:16;82.30;;;28.73;;
51792;SDS011;37850;53.178;6.376;2023-11-18T08:47:44;94.53;;;30.30;;
51792;SDS011;37850;53.178;6.376;2023-11-18T08:50:12;84.88;;;28.23;;
51792;SDS011;37850;53.178;6.376;2023-11-18T08:52:45;91.57;;;30.52;;
51792;SDS011;37850;53.178;6.376;2023-11-18T08:55:14;97.75;;;30.88;;
51792;SDS011;37850;53.178;6.376;2023-11-18T08:57:49;90.60;;;29.92;;
51792;SDS011;37850;53.178;6.376;2023-11-18T09:00:38;100.50;;;31.60;;
51792;SDS011;37850;53.178;6.376;2023-11-18T09:03:08;97.78;;;31.75;;
51792;SDS011;37850;53.178;6.376;2023-11-18T09:05:33;90.15;;;29.92;;
51792;SDS011;37850;53.178;6.376;2023-11-18T09:08:01;95.00;;;31.77;;
51792;SDS011;37850;53.178;6.376;2023-11-18T09:10:31;97.20;;;30.98;;
51792;SDS011;37850;53.178;6.376;2023-11-18T09:12:57;94.25;;;30.88;;
51792;SDS011;37850;53.178;6.376;2023-11-18T09:15:23;96.40;;;30.70;;
51792;SDS011;37850;53.178;6.376;2023-11-18T09:17:49;90.97;;;30.73;;
51792;SDS011;37850;53.178;6.376;2023-11-18T09:20:18;107.30;;;31.08;;
51792;SDS011;37850;53.178;6.376;2023-11-18T09:22:56;106.00;;;32.22;;
51792;SDS011;37850;53.178;6.376;2023-11-18T09:25:23;102.05;;;33.80;;
51792;SDS011;37850;53.178;6.376;2023-11-18T09:27:48;108.18;;;34.53;;
51792;SDS011;37850;53.178;6.376;2023-11-18T09:30:14;99.82;;;32.55;;
51792;SDS011;37850;53.178;6.376;2023-11-18T09:32:40;110.78;;;33.83;;
51792;SDS011;37850;53.178;6.376;2023-11-18T09:35:12;109.35;;;33.30;;
51792;SDS011;37850;53.178;6.376;2023-11-18T09:37:39;98.75;;;32.40;;
51792;SDS011;37850;53.178;6.376;2023-11-18T09:40:08;107.55;;;34.33;;
51792;SDS011;37850;53.178;6.376;2023-11-18T09:42:39;95.90;;;32.65;;
51792;SDS011;37850;53.178;6.376;2023-11-18T09:45:09;95.72;;;31.50;;
51792;SDS011;37850;53.178;6.376;2023-11-18T09:47:41;94.30;;;33.05;;
51792;SDS011;37850;53.178;6.376;2023-11-18T09:50:08;96.93;;;31.85;;
51792;SDS011;37850;53.178;6.376;2023-11-18T09:52:40;103.53;;;33.28;;
51792;SDS011;37850;53.178;6.376;2023-11-18T09:55:19;104.18;;;34.80;;
51792;SDS011;37850;53.178;6.376;2023-11-18T09:57:54;96.80;;;31.70;;
51792;SDS011;37850;53.178;6.376;2023-11-18T10:00:25;98.10;;;34.25;;
51792;SDS011;37850;53.178;6.376;2023-11-18T10:02:57;92.07;;;34.13;;
51792;SDS011;37850;53.178;6.376;2023-11-18T10:05:26;93.57;;;32.50;;
51792;SDS011;37850;53.178;6.376;2023-11-18T10:07:52;113.32;;;35.75;;
51792;SDS011;37850;53.178;6.376;2023-11-18T10:10:19;99.88;;;35.55;;
51792;SDS011;37850;53.178;6.376;2023-11-18T10:12:50;102.80;;;35.50;;
51792;SDS011;37850;53.178;6.376;2023-11-18T10:15:23;95.38;;;35.13;;
51792;SDS011;37850;53.178;6.376;2023-11-18T10:17:50;103.63;;;37.10;;
51792;SDS011;37850;53.178;6.376;2023-11-18T10:23:13;101.57;;;35.63;;
51792;SDS011;37850;53.178;6.376;2023-11-18T10:25:54;109.07;;;36.22;;
51792;SDS011;37850;53.178;6.376;2023-11-18T10:28:29;93.22;;;34.63;;
51792;SDS011;37850;53.178;6.376;2023-11-18T10:31:07;100.53;;;35.42;;
51792;SDS011;37850;53.178;6.376;2023-11-18T10:33:35;94.03;;;35.38;;
51792;SDS011;37850;53.178;6.376;2023-11-18T10:36:02;90.68;;;35.97;;
51792;SDS011;37850;53.178;6.376;2023-11-18T10:38:30;94.50;;;37.17;;
51792;SDS011;37850;53.178;6.376;2023-11-18T10:40:57;91.20;;;36.08;;
51792;SDS011;37850;53.178;6.376;2023-11-18T10:43:26;96.88;;;36.17;;
51792;SDS011;37850;53.178;6.376;2023-11-18T10:48:37;106.70;;;37.20;;
51792;SDS011;37850;53.178;6.376;2023-11-18T10:51:10;110.00;;;36.78;;
51792;SDS011;37850;53.178;6.376;2023-11-18T10:53:37;105.55;;;38.53;;
51792;SDS011;37850;53.178;6.376;2023-11-18T10:56:05;105.90;;;38.15;;
51792;SDS011;37850;53.178;6.376;2023-11-18T10:58:37;95.38;;;37.85;;
51792;SDS011;37850;53.178;6.376;2023-11-18T11:01:06;100.40;;;37.97;;
51792;SDS011;37850;53.178;6.376;2023-11-18T11:03:55;97.18;;;37.28;;
51792;SDS011;37850;53.178;6.376;2023-11-18T11:06:21;106.25;;;38.50;;
51792;SDS011;37850;53.178;6.376;2023-11-18T11:08:51;92.93;;;36.92;;
51792;SDS011;37850;53.178;6.376;2023-11-18T11:11:21;99.53;;;38.55;;
51792;SDS011;37850;53.178;6.376;2023-11-18T11:13:58;102.72;;;41.25;;
51792;SDS011;37850;53.178;6.376;2023-11-18T11:16:28;95.65;;;37.22;;
51792;SDS011;37850;53.178;6.376;2023-11-18T11:19:03;99.68;;;40.80;;
51792;SDS011;37850;53.178;6.376;2023-11-18T11:21:37;96.30;;;39.80;;
51792;SDS011;37850;53.178;6.376;2023-11-18T11:24:20;91.45;;;37.33;;
51792;SDS011;37850;53.178;6.376;2023-11-18T11:29:55;86.25;;;38.50;;
51792;SDS011;37850;53.178;6.376;2023-11-18T11:32:35;85.13;;;37.13;;
51792;SDS011;37850;53.178;6.376;2023-11-18T11:35:16;80.93;;;36.67;;
51792;SDS011;37850;53.178;6.376;2023-11-18T11:37:47;78.55;;;36.00;;
51792;SDS011;37850;53.178;6.376;2023-11-18T11:40:14;79.88;;;36.88;;
51792;SDS011;37850;53.178;6.376;2023-11-18T11:42:47;73.97;;;34.15;;
51792;SDS011;37850;53.178;6.376;2023-11-18T11:45:26;73.18;;;35.47;;
51792;SDS011;37850;53.178;6.376;2023-11-18T11:47:59;74.28;;;34.58;;
51792;SDS011;37850;53.178;6.376;2023-11-18T11:53:21;64.68;;;33.70;;
51792;SDS011;37850;53.178;6.376;2023-11-18T11:55:52;65.38;;;34.50;;
51792;SDS011;37850;53.178;6.376;2023-11-18T11:58:25;72.97;;;32.70;;
51792;SDS011;37850;53.178;6.376;2023-11-18T12:00:58;58.65;;;31.10;;
51792;SDS011;37850;53.178;6.376;2023-11-18T12:03:26;59.40;;;30.75;;
51792;SDS011;37850;53.178;6.376;2023-11-18T12:06:01;58.85;;;30.58;;
51792;SDS011;37850;53.178;6.376;2023-11-18T12:08:35;62.92;;;28.85;;
51792;SDS011;37850;53.178;6.376;2023-11-18T12:11:05;54.35;;;28.83;;
51792;SDS011;37850;53.178;6.376;2023-11-18T12:13:34;57.53;;;27.08;;
51792;SDS011;37850;53.178;6.376;2023-11-18T12:16:04;53.15;;;27.00;;
51792;SDS011;37850;53.178;6.376;2023-11-18T12:18:31;55.75;;;25.50;;
51792;SDS011;37850;53.178;6.376;2023-11-18T12:21:02;53.10;;;25.35;;
51792;SDS011;37850;53.178;6.376;2023-11-18T12:23:29;46.50;;;24.48;;
51792;SDS011;37850;53.178;6.376;2023-11-18T12:25:56;47.08;;;23.70;;
51792;SDS011;37850;53.178;6.376;2023-11-18T12:28:28;47.25;;;21.90;;
51792;SDS011;37850;53.178;6.376;2023-11-18T12:31:00;51.22;;;23.58;;
51792;SDS011;37850;53.178;6.376;2023-11-18T12:36:44;48.67;;;21.90;;
51792;SDS011;37850;53.178;6.376;2023-11-18T12:42:20;45.63;;;22.38;;
51792;SDS011;37850;53.178;6.376;2023-11-18T12:46:03;44.20;;;21.25;;
51792;SDS011;37850;53.178;6.376;2023-11-18T12:48:31;41.97;;;20.10;;
51792;SDS011;37850;53.178;6.376;2023-11-18T12:50:57;39.15;;;19.90;;
51792;SDS011;37850;53.178;6.376;2023-11-18T12:53:25;40.47;;;20.55;;
51792;SDS011;37850;53.178;6.376;2023-11-18T12:55:53;38.05;;;18.85;;
51792;SDS011;37850;53.178;6.376;2023-11-18T12:58:19;42.30;;;18.77;;
51792;SDS011;37850;53.178;6.376;2023-11-18T13:00:48;41.17;;;19.25;;
51792;SDS011;37850;53.178;6.376;2023-11-18T13:03:15;46.00;;;20.23;;
51792;SDS011;37850;53.178;6.376;2023-11-18T13:05:43;45.92;;;20.48;;
51792;SDS011;37850;53.178;6.376;2023-11-18T13:08:10;44.58;;;20.10;;
51792;SDS011;37850;53.178;6.376;2023-11-18T13:10:36;36.17;;;18.40;;
51792;SDS011;37850;53.178;6.376;2023-11-18T13:13:02;38.08;;;18.42;;
51792;SDS011;37850;53.178;6.376;2023-11-18T13:15:30;42.63;;;19.23;;
51792;SDS011;37850;53.178;6.376;2023-11-18T13:17:59;41.35;;;18.88;;
51792;SDS011;37850;53.178;6.376;2023-11-18T13:20:26;38.42;;;18.92;;
51792;SDS011;37850;53.178;6.376;2023-11-18T13:22:52;39.05;;;19.52;;
51792;SDS011;37850;53.178;6.376;2023-11-18T13:25:22;39.00;;;19.10;;
51792;SDS011;37850;53.178;6.376;2023-11-18T13:27:48;35.63;;;18.17;;
51792;SDS011;37850;53.178;6.376;2023-11-18T13:30:15;39.55;;;18.35;;
51792;SDS011;37850;53.178;6.376;2023-11-18T13:32:42;39.90;;;18.05;;
51792;SDS011;37850;53.178;6.376;2023-11-18T13:35:08;35.20;;;18.25;;
51792;SDS011;37850;53.178;6.376;2023-11-18T13:37:45;40.80;;;18.95;;
51792;SDS011;37850;53.178;6.376;2023-11-18T13:40:14;36.40;;;17.02;;
51792;SDS011;37850;53.178;6.376;2023-11-18T13:42:43;37.50;;;18.90;;
51792;SDS011;37850;53.178;6.376;2023-11-18T13:45:11;36.70;;;18.65;;
51792;SDS011;37850;53.178;6.376;2023-11-18T13:47:49;38.10;;;17.95;;
51792;SDS011;37850;53.178;6.376;2023-11-18T13:50:17;34.10;;;17.95;;
51792;SDS011;37850;53.178;6.376;2023-11-18T13:52:44;39.55;;;17.42;;
51792;SDS011;37850;53.178;6.376;2023-11-18T13:55:11;28.80;;;14.82;;
51792;SDS011;37850;53.178;6.376;2023-11-18T13:57:42;34.08;;;17.67;;
51792;SDS011;37850;53.178;6.376;2023-11-18T14:00:09;36.38;;;16.58;;
51792;SDS011;37850;53.178;6.376;2023-11-18T14:05:14;31.67;;;15.95;;
51792;SDS011;37850;53.178;6.376;2023-11-18T14:07:47;29.67;;;15.57;;
51792;SDS011;37850;53.178;6.376;2023-11-18T14:10:13;38.03;;;16.25;;
51792;SDS011;37850;53.178;6.376;2023-11-18T14:12:39;34.33;;;16.40;;
51792;SDS011;37850;53.178;6.376;2023-11-18T14:15:19;35.28;;;17.58;;
51792;SDS011;37850;53.178;6.376;2023-11-18T14:17:45;34.28;;;17.10;;
51792;SDS011;37850;53.178;6.376;2023-11-18T14:20:12;34.85;;;16.35;;
51792;SDS011;37850;53.178;6.376;2023-11-18T14:22:38;31.63;;;15.73;;
51792;SDS011;37850;53.178;6.376;2023-11-18T14:25:06;33.63;;;16.60;;
51792;SDS011;37850;53.178;6.376;2023-11-18T14:27:32;35.08;;;16.90;;
51792;SDS011;37850;53.178;6.376;2023-11-18T14:29:58;31.27;;;16.60;;
51792;SDS011;37850;53.178;6.376;2023-11-18T14:32:25;31.50;;;15.50;;
51792;SDS011;37850;53.178;6.376;2023-11-18T14:34:52;30.05;;;15.60;;
51792;SDS011;37850;53.178;6.376;2023-11-18T14:37:19;29.08;;;15.25;;
51792;SDS011;37850;53.178;6.376;2023-11-18T14:39:48;28.33;;;14.90;;
51792;SDS011;37850;53.178;6.376;2023-11-18T14:42:14;31.00;;;14.40;;
51792;SDS011;37850;53.178;6.376;2023-11-18T14:44:40;28.88;;;13.43;;
51792;SDS011;37850;53.178;6.376;2023-11-18T14:47:06;29.42;;;14.38;;
51792;SDS011;37850;53.178;6.376;2023-11-18T14:49:32;28.85;;;13.50;;